sensor_id;sensor_type;location;lat;lon;timestamp;P1;durP1;ratioP1;P2;durP2;ratioP2
63087;SDS011;49173;43.164;27.786;2023-07-16T00:02:04;5.38;;;3.05;;
63087;SDS011;49173;43.164;27.786;2023-07-16T00:04:33;5.05;;;3.38;;
63087;SDS011;49173;43.164;27.786;2023-07-16T00:06:59;6.22;;;3.15;;
63087;SDS011;49173;43.164;27.786;2023-07-16T00:09:26;4.88;;;3.03;;
63087;SDS011;49173;43.164;27.786;2023-07-16T00:11:52;4.32;;;3.15;;
63087;SDS011;49173;43.164;27.786;2023-07-16T00:14:18;5.78;;;3.22;;
63087;SDS011;49173;43.164;27.786;2023-07-16T00:16:44;6.85;;;3.15;;
63087;SDS011;49173;43.164;27.786;2023-07-16T00:19:10;5.90;;;3.58;;
63087;SDS011;49173;43.164;27.786;2023-07-16T00:21:37;4.32;;;3.22;;
63087;SDS011;49173;43.164;27.786;2023-07-16T00:24:04;5.22;;;3.28;;
63087;SDS011;49173;43.164;27.786;2023-07-16T00:26:30;6.63;;;3.45;;
63087;SDS011;49173;43.164;27.786;2023-07-16T00:28:56;5.82;;;3.50;;
63087;SDS011;49173;43.164;27.786;2023-07-16T00:31:21;6.28;;;3.75;;
63087;SDS011;49173;43.164;27.786;2023-07-16T00:33:47;9.77;;;3.58;;
63087;SDS011;49173;43.164;27.786;2023-07-16T00:36:13;5.22;;;3.22;;
63087;SDS011;49173;43.164;27.786;2023-07-16T00:38:38;7.95;;;3.70;;
63087;SDS011;49173;43.164;27.786;2023-07-16T00:41:05;7.00;;;3.80;;
63087;SDS011;49173;43.164;27.786;2023-07-16T00:43:31;6.35;;;3.67;;
63087;SDS011;49173;43.164;27.786;2023-07-16T00:45:57;7.10;;;3.30;;
63087;SDS011;49173;43.164;27.786;2023-07-16T00:48:23;7.55;;;3.15;;
63087;SDS011;49173;43.164;27.786;2023-07-16T00:50:49;8.45;;;3.80;;
63087;SDS011;49173;43.164;27.786;2023-07-16T00:53:16;6.68;;;3.30;;
63087;SDS011;49173;43.164;27.786;2023-07-16T00:55:42;4.90;;;3.35;;
63087;SDS011;49173;43.164;27.786;2023-07-16T00:58:08;4.72;;;3.25;;
63087;SDS011;49173;43.164;27.786;2023-07-16T01:00:34;5.03;;;3.15;;
63087;SDS011;49173;43.164;27.786;2023-07-16T01:03:01;5.30;;;3.65;;
63087;SDS011;49173;43.164;27.786;2023-07-16T01:05:31;8.57;;;3.47;;
63087;SDS011;49173;43.164;27.786;2023-07-16T01:08:08;8.90;;;3.80;;
63087;SDS011;49173;43.164;27.786;2023-07-16T01:10:36;4.50;;;3.55;;
63087;SDS011;49173;43.164;27.786;2023-07-16T01:13:03;6.80;;;3.78;;
63087;SDS011;49173;43.164;27.786;2023-07-16T01:15:29;5.95;;;3.40;;
63087;SDS011;49173;43.164;27.786;2023-07-16T01:17:55;6.35;;;3.88;;
63087;SDS011;49173;43.164;27.786;2023-07-16T01:20:21;7.93;;;3.83;;
63087;SDS011;49173;43.164;27.786;2023-07-16T01:29:35;6.55;;;3.50;;
63087;SDS011;49173;43.164;27.786;2023-07-16T01:31:32;6.33;;;3.10;;
63087;SDS011;49173;43.164;27.786;2023-07-16T01:33:59;8.00;;;3.40;;
63087;SDS011;49173;43.164;27.786;2023-07-16T01:36:28;5.00;;;3.37;;
63087;SDS011;49173;43.164;27.786;2023-07-16T01:38:54;5.80;;;3.80;;
63087;SDS011;49173;43.164;27.786;2023-07-16T01:41:20;5.57;;;3.40;;
63087;SDS011;49173;43.164;27.786;2023-07-16T01:43:46;7.55;;;3.90;;
63087;SDS011;49173;43.164;27.786;2023-07-16T01:46:12;4.97;;;3.60;;
63087;SDS011;49173;43.164;27.786;2023-07-16T01:48:38;7.20;;;3.50;;
63087;SDS011;49173;43.164;27.786;2023-07-16T01:51:04;7.03;;;3.50;;
63087;SDS011;49173;43.164;27.786;2023-07-16T01:53:30;5.53;;;3.70;;
63087;SDS011;49173;43.164;27.786;2023-07-16T01:56:00;5.30;;;3.05;;
63087;SDS011;49173;43.164;27.786;2023-07-16T01:58:27;7.77;;;3.33;;
63087;SDS011;49173;43.164;27.786;2023-07-16T02:00:53;4.60;;;3.67;;
63087;SDS011;49173;43.164;27.786;2023-07-16T02:03:19;5.82;;;3.50;;
63087;SDS011;49173;43.164;27.786;2023-07-16T02:05:44;5.57;;;3.42;;
63087;SDS011;49173;43.164;27.786;2023-07-16T02:08:10;4.53;;;3.53;;
63087;SDS011;49173;43.164;27.786;2023-07-16T02:10:36;6.45;;;3.45;;
63087;SDS011;49173;43.164;27.786;2023-07-16T02:13:01;7.20;;;3.60;;
63087;SDS011;49173;43.164;27.786;2023-07-16T02:15:27;5.95;;;3.53;;
63087;SDS011;49173;43.164;27.786;2023-07-16T02:17:53;5.28;;;3.88;;
63087;SDS011;49173;43.164;27.786;2023-07-16T02:20:18;8.68;;;3.88;;
63087;SDS011;49173;43.164;27.786;2023-07-16T02:22:44;6.22;;;3.30;;
63087;SDS011;49173;43.164;27.786;2023-07-16T02:25:10;6.00;;;3.72;;
63087;SDS011;49173;43.164;27.786;2023-07-16T02:27:36;6.50;;;3.97;;
63087;SDS011;49173;43.164;27.786;2023-07-16T02:30:03;6.28;;;3.50;;
63087;SDS011;49173;43.164;27.786;2023-07-16T02:32:29;4.38;;;3.40;;
63087;SDS011;49173;43.164;27.786;2023-07-16T02:34:55;6.15;;;3.60;;
63087;SDS011;49173;43.164;27.786;2023-07-16T02:37:20;4.80;;;3.17;;
63087;SDS011;49173;43.164;27.786;2023-07-16T02:39:46;6.28;;;3.65;;
63087;SDS011;49173;43.164;27.786;2023-07-16T02:42:13;5.47;;;3.17;;
63087;SDS011;49173;43.164;27.786;2023-07-16T02:44:38;7.63;;;3.42;;
63087;SDS011;49173;43.164;27.786;2023-07-16T02:47:10;4.55;;;3.60;;
63087;SDS011;49173;43.164;27.786;2023-07-16T02:49:37;6.22;;;3.55;;
63087;SDS011;49173;43.164;27.786;2023-07-16T02:52:03;7.75;;;3.20;;
63087;SDS011;49173;43.164;27.786;2023-07-16T02:54:29;4.82;;;3.20;;
63087;SDS011;49173;43.164;27.786;2023-07-16T02:56:55;5.00;;;3.20;;
63087;SDS011;49173;43.164;27.786;2023-07-16T02:59:21;6.07;;;3.53;;
63087;SDS011;49173;43.164;27.786;2023-07-16T03:01:47;6.10;;;3.33;;
63087;SDS011;49173;43.164;27.786;2023-07-16T03:04:12;5.57;;;3.47;;
63087;SDS011;49173;43.164;27.786;2023-07-16T03:06:38;4.75;;;3.22;;
63087;SDS011;49173;43.164;27.786;2023-07-16T03:09:08;5.90;;;3.50;;
63087;SDS011;49173;43.164;27.786;2023-07-16T03:11:34;4.88;;;3.13;;
63087;SDS011;49173;43.164;27.786;2023-07-16T03:14:00;5.95;;;3.55;;
63087;SDS011;49173;43.164;27.786;2023-07-16T03:18:52;5.03;;;3.60;;
63087;SDS011;49173;43.164;27.786;2023-07-16T03:21:18;4.28;;;3.20;;
63087;SDS011;49173;43.164;27.786;2023-07-16T03:23:44;7.30;;;3.15;;
63087;SDS011;49173;43.164;27.786;2023-07-16T03:26:09;5.10;;;3.17;;
63087;SDS011;49173;43.164;27.786;2023-07-16T03:28:35;5.82;;;3.53;;
63087;SDS011;49173;43.164;27.786;2023-07-16T03:31:02;5.50;;;3.47;;
63087;SDS011;49173;43.164;27.786;2023-07-16T03:33:27;5.70;;;3.45;;
63087;SDS011;49173;43.164;27.786;2023-07-16T03:35:53;5.57;;;3.90;;
63087;SDS011;49173;43.164;27.786;2023-07-16T03:38:19;8.65;;;3.75;;
63087;SDS011;49173;43.164;27.786;2023-07-16T03:40:48;6.47;;;3.85;;
63087;SDS011;49173;43.164;27.786;2023-07-16T03:43:15;9.70;;;3.97;;
63087;SDS011;49173;43.164;27.786;2023-07-16T03:45:42;6.07;;;3.63;;
63087;SDS011;49173;43.164;27.786;2023-07-16T03:48:08;5.97;;;3.65;;
63087;SDS011;49173;43.164;27.786;2023-07-16T03:50:34;6.22;;;3.60;;
63087;SDS011;49173;43.164;27.786;2023-07-16T03:53:00;7.22;;;4.28;;
63087;SDS011;49173;43.164;27.786;2023-07-16T03:55:26;7.75;;;4.00;;
63087;SDS011;49173;43.164;27.786;2023-07-16T03:57:51;7.10;;;4.28;;
63087;SDS011;49173;43.164;27.786;2023-07-16T04:00:17;5.80;;;3.97;;
63087;SDS011;49173;43.164;27.786;2023-07-16T04:02:43;5.13;;;4.00;;
63087;SDS011;49173;43.164;27.786;2023-07-16T04:05:09;6.15;;;3.70;;
63087;SDS011;49173;43.164;27.786;2023-07-16T04:07:35;5.85;;;3.97;;
63087;SDS011;49173;43.164;27.786;2023-07-16T04:10:01;10.07;;;4.32;;
63087;SDS011;49173;43.164;27.786;2023-07-16T04:12:29;11.13;;;4.33;;
63087;SDS011;49173;43.164;27.786;2023-07-16T04:14:55;6.43;;;3.90;;
63087;SDS011;49173;43.164;27.786;2023-07-16T04:17:24;7.40;;;3.92;;
63087;SDS011;49173;43.164;27.786;2023-07-16T04:19:50;5.63;;;3.80;;
63087;SDS011;49173;43.164;27.786;2023-07-16T04:22:16;9.20;;;3.50;;
63087;SDS011;49173;43.164;27.786;2023-07-16T04:24:41;5.18;;;3.70;;
63087;SDS011;49173;43.164;27.786;2023-07-16T04:27:07;5.07;;;3.50;;
63087;SDS011;49173;43.164;27.786;2023-07-16T04:29:33;4.80;;;3.38;;
63087;SDS011;49173;43.164;27.786;2023-07-16T04:31:58;5.13;;;3.70;;
63087;SDS011;49173;43.164;27.786;2023-07-16T04:34:24;6.55;;;4.30;;
63087;SDS011;49173;43.164;27.786;2023-07-16T04:36:50;9.38;;;4.38;;
63087;SDS011;49173;43.164;27.786;2023-07-16T04:39:16;6.35;;;4.65;;
63087;SDS011;49173;43.164;27.786;2023-07-16T04:41:42;8.20;;;5.07;;
63087;SDS011;49173;43.164;27.786;2023-07-16T04:44:07;7.13;;;4.50;;
63087;SDS011;49173;43.164;27.786;2023-07-16T04:46:33;5.90;;;4.13;;
63087;SDS011;49173;43.164;27.786;2023-07-16T04:48:59;8.32;;;4.00;;
63087;SDS011;49173;43.164;27.786;2023-07-16T04:51:26;5.32;;;3.47;;
63087;SDS011;49173;43.164;27.786;2023-07-16T04:53:51;8.93;;;4.10;;
63087;SDS011;49173;43.164;27.786;2023-07-16T04:56:17;7.43;;;3.88;;
63087;SDS011;49173;43.164;27.786;2023-07-16T04:58:43;4.70;;;3.08;;
63087;SDS011;49173;43.164;27.786;2023-07-16T05:01:09;5.72;;;3.00;;
63087;SDS011;49173;43.164;27.786;2023-07-16T05:03:35;5.50;;;3.40;;
63087;SDS011;49173;43.164;27.786;2023-07-16T05:06:01;4.82;;;3.05;;
63087;SDS011;49173;43.164;27.786;2023-07-16T05:08:27;4.97;;;3.10;;
63087;SDS011;49173;43.164;27.786;2023-07-16T05:10:53;8.43;;;3.00;;
63087;SDS011;49173;43.164;27.786;2023-07-16T05:13:19;4.68;;;3.20;;
63087;SDS011;49173;43.164;27.786;2023-07-16T05:15:45;5.43;;;3.10;;
63087;SDS011;49173;43.164;27.786;2023-07-16T05:18:11;7.45;;;3.22;;
63087;SDS011;49173;43.164;27.786;2023-07-16T05:20:37;4.85;;;3.00;;
63087;SDS011;49173;43.164;27.786;2023-07-16T05:23:02;6.43;;;2.72;;
63087;SDS011;49173;43.164;27.786;2023-07-16T05:25:28;4.45;;;2.72;;
63087;SDS011;49173;43.164;27.786;2023-07-16T05:27:55;4.55;;;2.75;;
63087;SDS011;49173;43.164;27.786;2023-07-16T05:30:21;4.95;;;2.85;;
63087;SDS011;49173;43.164;27.786;2023-07-16T05:32:47;5.53;;;2.88;;
63087;SDS011;49173;43.164;27.786;2023-07-16T05:35:12;6.20;;;2.60;;
63087;SDS011;49173;43.164;27.786;2023-07-16T05:37:38;7.07;;;2.78;;
63087;SDS011;49173;43.164;27.786;2023-07-16T05:40:04;7.00;;;2.95;;
63087;SDS011;49173;43.164;27.786;2023-07-16T05:42:34;6.18;;;2.63;;
63087;SDS011;49173;43.164;27.786;2023-07-16T05:44:59;3.92;;;2.78;;
63087;SDS011;49173;43.164;27.786;2023-07-16T05:47:25;4.72;;;2.38;;
63087;SDS011;49173;43.164;27.786;2023-07-16T05:49:51;5.00;;;2.60;;
63087;SDS011;49173;43.164;27.786;2023-07-16T05:52:17;4.45;;;2.63;;
63087;SDS011;49173;43.164;27.786;2023-07-16T05:54:43;4.72;;;2.72;;
63087;SDS011;49173;43.164;27.786;2023-07-16T05:57:10;3.33;;;2.45;;
63087;SDS011;49173;43.164;27.786;2023-07-16T06:02:04;5.03;;;2.38;;
63087;SDS011;49173;43.164;27.786;2023-07-16T06:04:31;3.80;;;2.42;;
63087;SDS011;49173;43.164;27.786;2023-07-16T06:06:56;6.68;;;2.55;;
63087;SDS011;49173;43.164;27.786;2023-07-16T06:09:23;3.67;;;2.35;;
63087;SDS011;49173;43.164;27.786;2023-07-16T06:11:49;3.90;;;2.50;;
63087;SDS011;49173;43.164;27.786;2023-07-16T06:14:15;5.18;;;2.55;;
63087;SDS011;49173;43.164;27.786;2023-07-16T06:16:41;7.57;;;2.72;;
63087;SDS011;49173;43.164;27.786;2023-07-16T06:19:07;4.35;;;2.25;;
63087;SDS011;49173;43.164;27.786;2023-07-16T06:21:33;4.20;;;2.25;;
63087;SDS011;49173;43.164;27.786;2023-07-16T06:24:00;3.88;;;2.30;;
63087;SDS011;49173;43.164;27.786;2023-07-16T06:26:26;3.35;;;1.98;;
63087;SDS011;49173;43.164;27.786;2023-07-16T06:31:20;5.63;;;1.95;;
63087;SDS011;49173;43.164;27.786;2023-07-16T06:33:46;3.20;;;2.20;;
63087;SDS011;49173;43.164;27.786;2023-07-16T06:36:12;3.65;;;2.10;;
63087;SDS011;49173;43.164;27.786;2023-07-16T06:38:38;5.82;;;2.40;;
63087;SDS011;49173;43.164;27.786;2023-07-16T06:41:04;3.47;;;2.22;;
63087;SDS011;49173;43.164;27.786;2023-07-16T06:43:30;4.95;;;2.00;;
63087;SDS011;49173;43.164;27.786;2023-07-16T06:45:56;3.55;;;1.85;;
63087;SDS011;49173;43.164;27.786;2023-07-16T06:48:22;5.35;;;2.05;;
63087;SDS011;49173;43.164;27.786;2023-07-16T06:50:47;3.95;;;1.80;;
63087;SDS011;49173;43.164;27.786;2023-07-16T06:53:15;3.97;;;2.00;;
63087;SDS011;49173;43.164;27.786;2023-07-16T06:55:41;2.83;;;1.85;;
63087;SDS011;49173;43.164;27.786;2023-07-16T06:58:09;3.85;;;2.00;;
63087;SDS011;49173;43.164;27.786;2023-07-16T07:00:37;2.45;;;1.65;;
63087;SDS011;49173;43.164;27.786;2023-07-16T07:03:03;5.57;;;1.88;;
63087;SDS011;49173;43.164;27.786;2023-07-16T07:05:29;4.72;;;2.15;;
63087;SDS011;49173;43.164;27.786;2023-07-16T07:07:54;4.47;;;2.00;;
63087;SDS011;49173;43.164;27.786;2023-07-16T07:10:20;3.53;;;1.90;;
63087;SDS011;49173;43.164;27.786;2023-07-16T07:12:46;3.92;;;2.00;;
63087;SDS011;49173;43.164;27.786;2023-07-16T07:15:12;3.45;;;1.80;;
63087;SDS011;49173;43.164;27.786;2023-07-16T07:17:38;4.97;;;1.75;;
63087;SDS011;49173;43.164;27.786;2023-07-16T07:20:05;3.80;;;1.92;;
63087;SDS011;49173;43.164;27.786;2023-07-16T07:22:31;4.88;;;2.05;;
63087;SDS011;49173;43.164;27.786;2023-07-16T07:24:57;4.18;;;1.90;;
63087;SDS011;49173;43.164;27.786;2023-07-16T07:27:23;2.63;;;1.73;;
63087;SDS011;49173;43.164;27.786;2023-07-16T07:29:49;4.70;;;1.90;;
63087;SDS011;49173;43.164;27.786;2023-07-16T07:32:20;3.00;;;1.98;;
63087;SDS011;49173;43.164;27.786;2023-07-16T07:34:46;4.28;;;1.90;;
63087;SDS011;49173;43.164;27.786;2023-07-16T07:37:12;5.53;;;2.10;;
63087;SDS011;49173;43.164;27.786;2023-07-16T07:39:38;3.42;;;1.90;;
63087;SDS011;49173;43.164;27.786;2023-07-16T07:42:06;2.80;;;1.90;;
63087;SDS011;49173;43.164;27.786;2023-07-16T07:44:32;5.88;;;2.13;;
63087;SDS011;49173;43.164;27.786;2023-07-16T07:46:58;6.22;;;2.33;;
63087;SDS011;49173;43.164;27.786;2023-07-16T07:49:24;5.53;;;2.17;;
63087;SDS011;49173;43.164;27.786;2023-07-16T07:51:49;8.23;;;1.83;;
63087;SDS011;49173;43.164;27.786;2023-07-16T07:54:15;4.68;;;2.10;;
63087;SDS011;49173;43.164;27.786;2023-07-16T07:56:41;3.63;;;2.08;;
63087;SDS011;49173;43.164;27.786;2023-07-16T07:59:08;3.22;;;1.95;;
63087;SDS011;49173;43.164;27.786;2023-07-16T08:01:33;5.40;;;1.80;;
63087;SDS011;49173;43.164;27.786;2023-07-16T08:03:59;6.30;;;2.03;;
63087;SDS011;49173;43.164;27.786;2023-07-16T08:06:25;4.00;;;1.90;;
63087;SDS011;49173;43.164;27.786;2023-07-16T08:08:51;10.07;;;2.30;;
63087;SDS011;49173;43.164;27.786;2023-07-16T08:11:17;3.50;;;1.95;;
63087;SDS011;49173;43.164;27.786;2023-07-16T08:13:43;4.55;;;2.08;;
63087;SDS011;49173;43.164;27.786;2023-07-16T08:16:09;7.80;;;1.98;;
63087;SDS011;49173;43.164;27.786;2023-07-16T08:18:34;3.13;;;2.08;;
63087;SDS011;49173;43.164;27.786;2023-07-16T08:21:00;4.40;;;2.17;;
63087;SDS011;49173;43.164;27.786;2023-07-16T08:23:26;5.13;;;2.03;;
63087;SDS011;49173;43.164;27.786;2023-07-16T08:25:52;4.00;;;2.03;;
63087;SDS011;49173;43.164;27.786;2023-07-16T08:28:18;4.95;;;2.10;;
63087;SDS011;49173;43.164;27.786;2023-07-16T08:30:46;5.25;;;2.42;;
63087;SDS011;49173;43.164;27.786;2023-07-16T08:33:13;5.70;;;1.88;;
63087;SDS011;49173;43.164;27.786;2023-07-16T08:35:40;3.45;;;2.00;;
63087;SDS011;49173;43.164;27.786;2023-07-16T08:38:06;4.03;;;1.90;;
63087;SDS011;49173;43.164;27.786;2023-07-16T08:40:38;4.78;;;1.80;;
63087;SDS011;49173;43.164;27.786;2023-07-16T08:43:05;3.28;;;1.95;;
63087;SDS011;49173;43.164;27.786;2023-07-16T08:45:32;4.53;;;2.00;;
63087;SDS011;49173;43.164;27.786;2023-07-16T08:48:05;4.78;;;2.00;;
63087;SDS011;49173;43.164;27.786;2023-07-16T08:50:35;4.50;;;1.70;;
63087;SDS011;49173;43.164;27.786;2023-07-16T08:53:04;3.72;;;1.90;;
63087;SDS011;49173;43.164;27.786;2023-07-16T08:55:31;8.10;;;1.98;;
63087;SDS011;49173;43.164;27.786;2023-07-16T08:57:57;3.60;;;1.90;;
63087;SDS011;49173;43.164;27.786;2023-07-16T09:00:24;3.58;;;1.90;;
63087;SDS011;49173;43.164;27.786;2023-07-16T09:02:52;4.80;;;2.00;;
63087;SDS011;49173;43.164;27.786;2023-07-16T09:05:21;5.07;;;1.92;;
63087;SDS011;49173;43.164;27.786;2023-07-16T09:07:48;8.20;;;1.90;;
63087;SDS011;49173;43.164;27.786;2023-07-16T09:10:14;5.93;;;2.05;;
63087;SDS011;49173;43.164;27.786;2023-07-16T09:12:47;7.13;;;2.00;;
63087;SDS011;49173;43.164;27.786;2023-07-16T09:15:16;4.15;;;1.80;;
63087;SDS011;49173;43.164;27.786;2023-07-16T09:17:48;6.47;;;2.00;;
63087;SDS011;49173;43.164;27.786;2023-07-16T09:20:15;7.05;;;2.00;;
63087;SDS011;49173;43.164;27.786;2023-07-16T09:22:42;5.22;;;1.92;;
63087;SDS011;49173;43.164;27.786;2023-07-16T09:25:09;3.72;;;2.20;;
63087;SDS011;49173;43.164;27.786;2023-07-16T09:27:36;3.28;;;1.85;;
63087;SDS011;49173;43.164;27.786;2023-07-16T09:30:05;5.82;;;1.80;;
63087;SDS011;49173;43.164;27.786;2023-07-16T09:32:32;11.73;;;2.05;;
63087;SDS011;49173;43.164;27.786;2023-07-16T09:37:37;6.50;;;1.73;;
63087;SDS011;49173;43.164;27.786;2023-07-16T09:40:07;4.60;;;1.80;;
63087;SDS011;49173;43.164;27.786;2023-07-16T09:42:39;3.78;;;2.00;;
63087;SDS011;49173;43.164;27.786;2023-07-16T09:45:16;4.38;;;2.30;;
63087;SDS011;49173;43.164;27.786;2023-07-16T09:47:43;4.15;;;1.92;;
63087;SDS011;49173;43.164;27.786;2023-07-16T09:50:10;5.07;;;2.10;;
63087;SDS011;49173;43.164;27.786;2023-07-16T09:52:37;3.92;;;1.80;;
63087;SDS011;49173;43.164;27.786;2023-07-16T09:55:05;3.30;;;1.92;;
63087;SDS011;49173;43.164;27.786;2023-07-16T09:57:35;4.88;;;2.05;;
63087;SDS011;49173;43.164;27.786;2023-07-16T10:02:33;4.18;;;1.98;;
63087;SDS011;49173;43.164;27.786;2023-07-16T10:05:10;6.10;;;2.22;;
63087;SDS011;49173;43.164;27.786;2023-07-16T10:07:40;5.93;;;2.13;;
63087;SDS011;49173;43.164;27.786;2023-07-16T10:10:07;3.17;;;1.85;;
63087;SDS011;49173;43.164;27.786;2023-07-16T10:12:34;5.50;;;2.53;;
63087;SDS011;49173;43.164;27.786;2023-07-16T10:15:01;6.13;;;2.22;;
63087;SDS011;49173;43.164;27.786;2023-07-16T10:17:29;6.93;;;2.17;;
63087;SDS011;49173;43.164;27.786;2023-07-16T10:20:06;4.30;;;2.08;;
63087;SDS011;49173;43.164;27.786;2023-07-16T10:22:41;3.28;;;1.95;;
63087;SDS011;49173;43.164;27.786;2023-07-16T10:27:43;5.93;;;1.90;;
63087;SDS011;49173;43.164;27.786;2023-07-16T10:30:10;4.35;;;1.90;;
63087;SDS011;49173;43.164;27.786;2023-07-16T10:32:37;6.05;;;2.10;;
63087;SDS011;49173;43.164;27.786;2023-07-16T10:35:04;7.68;;;1.90;;
63087;SDS011;49173;43.164;27.786;2023-07-16T10:37:31;5.03;;;1.80;;
63087;SDS011;49173;43.164;27.786;2023-07-16T10:39:57;6.85;;;2.10;;
63087;SDS011;49173;43.164;27.786;2023-07-16T10:42:25;3.30;;;1.88;;
63087;SDS011;49173;43.164;27.786;2023-07-16T10:44:54;4.85;;;1.80;;
63087;SDS011;49173;43.164;27.786;2023-07-16T10:47:23;4.88;;;2.05;;
63087;SDS011;49173;43.164;27.786;2023-07-16T10:49:51;4.55;;;2.13;;
63087;SDS011;49173;43.164;27.786;2023-07-16T10:52:17;4.35;;;1.70;;
63087;SDS011;49173;43.164;27.786;2023-07-16T10:54:43;3.25;;;1.77;;
63087;SDS011;49173;43.164;27.786;2023-07-16T10:57:10;4.85;;;1.80;;
63087;SDS011;49173;43.164;27.786;2023-07-16T10:59:38;6.05;;;1.80;;
63087;SDS011;49173;43.164;27.786;2023-07-16T11:02:08;3.40;;;1.60;;
63087;SDS011;49173;43.164;27.786;2023-07-16T11:04:36;3.10;;;1.90;;
63087;SDS011;49173;43.164;27.786;2023-07-16T11:07:07;3.70;;;1.83;;
63087;SDS011;49173;43.164;27.786;2023-07-16T11:09:35;5.47;;;1.75;;
63087;SDS011;49173;43.164;27.786;2023-07-16T11:12:07;7.95;;;1.67;;
63087;SDS011;49173;43.164;27.786;2023-07-16T11:14:44;3.72;;;1.95;;
63087;SDS011;49173;43.164;27.786;2023-07-16T11:17:11;4.47;;;1.95;;
63087;SDS011;49173;43.164;27.786;2023-07-16T11:19:38;4.82;;;1.70;;
63087;SDS011;49173;43.164;27.786;2023-07-16T11:22:05;4.65;;;1.90;;
63087;SDS011;49173;43.164;27.786;2023-07-16T11:24:36;2.97;;;1.77;;
63087;SDS011;49173;43.164;27.786;2023-07-16T11:27:15;6.15;;;1.75;;
63087;SDS011;49173;43.164;27.786;2023-07-16T11:29:47;4.07;;;1.80;;
63087;SDS011;49173;43.164;27.786;2023-07-16T11:32:36;4.95;;;1.90;;
63087;SDS011;49173;43.164;27.786;2023-07-16T11:35:06;3.17;;;1.80;;
63087;SDS011;49173;43.164;27.786;2023-07-16T11:37:34;3.85;;;1.90;;
63087;SDS011;49173;43.164;27.786;2023-07-16T11:40:02;4.03;;;1.90;;
63087;SDS011;49173;43.164;27.786;2023-07-16T11:42:32;4.25;;;2.00;;
63087;SDS011;49173;43.164;27.786;2023-07-16T11:45:00;6.45;;;1.90;;
63087;SDS011;49173;43.164;27.786;2023-07-16T11:47:26;4.00;;;1.75;;
63087;SDS011;49173;43.164;27.786;2023-07-16T11:49:53;3.40;;;2.00;;
63087;SDS011;49173;43.164;27.786;2023-07-16T11:52:24;3.10;;;1.73;;
63087;SDS011;49173;43.164;27.786;2023-07-16T11:54:57;5.88;;;1.58;;
63087;SDS011;49173;43.164;27.786;2023-07-16T11:57:27;4.45;;;2.10;;
63087;SDS011;49173;43.164;27.786;2023-07-16T11:59:53;4.50;;;1.70;;
63087;SDS011;49173;43.164;27.786;2023-07-16T12:02:19;3.17;;;1.75;;
63087;SDS011;49173;43.164;27.786;2023-07-16T12:04:46;3.60;;;1.60;;
63087;SDS011;49173;43.164;27.786;2023-07-16T12:07:12;4.95;;;1.90;;
63087;SDS011;49173;43.164;27.786;2023-07-16T12:09:38;2.90;;;1.77;;
63087;SDS011;49173;43.164;27.786;2023-07-16T12:12:04;3.53;;;1.65;;
63087;SDS011;49173;43.164;27.786;2023-07-16T12:14:30;5.63;;;1.90;;
63087;SDS011;49173;43.164;27.786;2023-07-16T12:16:57;4.65;;;1.77;;
63087;SDS011;49173;43.164;27.786;2023-07-16T12:19:23;6.05;;;1.85;;
63087;SDS011;49173;43.164;27.786;2023-07-16T12:21:50;6.10;;;3.42;;
63087;SDS011;49173;43.164;27.786;2023-07-16T12:24:16;5.97;;;2.63;;
63087;SDS011;49173;43.164;27.786;2023-07-16T12:26:42;4.95;;;2.20;;
63087;SDS011;49173;43.164;27.786;2023-07-16T12:29:08;6.28;;;2.80;;
63087;SDS011;49173;43.164;27.786;2023-07-16T12:31:34;3.80;;;2.22;;
63087;SDS011;49173;43.164;27.786;2023-07-16T12:34:00;6.80;;;2.42;;
63087;SDS011;49173;43.164;27.786;2023-07-16T12:36:29;6.07;;;2.08;;
63087;SDS011;49173;43.164;27.786;2023-07-16T12:38:55;10.65;;;3.90;;
63087;SDS011;49173;43.164;27.786;2023-07-16T12:41:22;5.63;;;2.10;;
63087;SDS011;49173;43.164;27.786;2023-07-16T12:43:49;8.73;;;2.13;;
63087;SDS011;49173;43.164;27.786;2023-07-16T12:46:15;6.50;;;1.88;;
63087;SDS011;49173;43.164;27.786;2023-07-16T12:48:41;6.28;;;3.00;;
63087;SDS011;49173;43.164;27.786;2023-07-16T12:51:07;8.13;;;2.80;;
63087;SDS011;49173;43.164;27.786;2023-07-16T12:53:33;7.13;;;3.17;;
63087;SDS011;49173;43.164;27.786;2023-07-16T12:55:59;6.10;;;2.70;;
63087;SDS011;49173;43.164;27.786;2023-07-16T12:58:25;4.47;;;2.35;;
63087;SDS011;49173;43.164;27.786;2023-07-16T13:00:52;4.38;;;1.90;;
63087;SDS011;49173;43.164;27.786;2023-07-16T13:03:18;4.03;;;2.10;;
63087;SDS011;49173;43.164;27.786;2023-07-16T13:05:44;7.47;;;2.90;;
63087;SDS011;49173;43.164;27.786;2023-07-16T13:08:10;10.75;;;4.13;;
63087;SDS011;49173;43.164;27.786;2023-07-16T13:10:36;6.75;;;2.90;;
63087;SDS011;49173;43.164;27.786;2023-07-16T13:13:02;8.88;;;3.60;;
63087;SDS011;49173;43.164;27.786;2023-07-16T13:15:33;12.02;;;5.80;;
63087;SDS011;49173;43.164;27.786;2023-07-16T13:17:59;7.35;;;2.47;;
63087;SDS011;49173;43.164;27.786;2023-07-16T13:20:25;3.75;;;1.80;;
63087;SDS011;49173;43.164;27.786;2023-07-16T13:22:51;6.93;;;1.92;;
63087;SDS011;49173;43.164;27.786;2023-07-16T13:25:17;5.38;;;1.63;;
63087;SDS011;49173;43.164;27.786;2023-07-16T13:27:42;4.22;;;2.13;;
63087;SDS011;49173;43.164;27.786;2023-07-16T13:30:08;4.40;;;1.90;;
63087;SDS011;49173;43.164;27.786;2023-07-16T13:32:35;6.45;;;2.00;;
63087;SDS011;49173;43.164;27.786;2023-07-16T13:35:00;5.05;;;1.65;;
63087;SDS011;49173;43.164;27.786;2023-07-16T13:37:26;3.75;;;1.60;;
63087;SDS011;49173;43.164;27.786;2023-07-16T13:39:52;3.60;;;1.67;;
63087;SDS011;49173;43.164;27.786;2023-07-16T13:42:18;6.53;;;1.75;;
63087;SDS011;49173;43.164;27.786;2023-07-16T13:44:43;5.68;;;1.80;;
63087;SDS011;49173;43.164;27.786;2023-07-16T13:47:09;4.22;;;1.63;;
63087;SDS011;49173;43.164;27.786;2023-07-16T13:49:35;4.40;;;1.85;;
63087;SDS011;49173;43.164;27.786;2023-07-16T13:52:00;4.88;;;1.63;;
63087;SDS011;49173;43.164;27.786;2023-07-16T13:54:26;5.60;;;1.70;;
63087;SDS011;49173;43.164;27.786;2023-07-16T13:56:52;4.07;;;1.75;;
63087;SDS011;49173;43.164;27.786;2023-07-16T13:59:17;4.13;;;1.83;;
63087;SDS011;49173;43.164;27.786;2023-07-16T14:01:43;4.53;;;1.70;;
63087;SDS011;49173;43.164;27.786;2023-07-16T14:04:09;4.88;;;1.60;;
63087;SDS011;49173;43.164;27.786;2023-07-16T14:06:35;7.05;;;1.80;;
63087;SDS011;49173;43.164;27.786;2023-07-16T14:09:01;4.20;;;1.70;;
63087;SDS011;49173;43.164;27.786;2023-07-16T14:11:27;3.45;;;1.63;;
63087;SDS011;49173;43.164;27.786;2023-07-16T14:13:53;3.15;;;1.50;;
63087;SDS011;49173;43.164;27.786;2023-07-16T14:16:19;4.35;;;1.58;;
63087;SDS011;49173;43.164;27.786;2023-07-16T14:18:50;5.57;;;2.00;;
63087;SDS011;49173;43.164;27.786;2023-07-16T14:21:17;3.20;;;1.60;;
63087;SDS011;49173;43.164;27.786;2023-07-16T14:23:44;5.03;;;1.73;;
63087;SDS011;49173;43.164;27.786;2023-07-16T14:26:10;3.95;;;1.85;;
63087;SDS011;49173;43.164;27.786;2023-07-16T14:28:35;3.50;;;1.70;;
63087;SDS011;49173;43.164;27.786;2023-07-16T14:31:01;3.55;;;1.83;;
63087;SDS011;49173;43.164;27.786;2023-07-16T14:33:27;5.03;;;1.88;;
63087;SDS011;49173;43.164;27.786;2023-07-16T14:35:53;2.53;;;1.60;;
63087;SDS011;49173;43.164;27.786;2023-07-16T14:38:19;5.47;;;1.65;;
63087;SDS011;49173;43.164;27.786;2023-07-16T14:40:45;5.47;;;1.90;;
63087;SDS011;49173;43.164;27.786;2023-07-16T14:43:11;5.95;;;2.05;;
63087;SDS011;49173;43.164;27.786;2023-07-16T14:45:37;4.57;;;1.98;;
63087;SDS011;49173;43.164;27.786;2023-07-16T14:48:03;3.95;;;1.58;;
63087;SDS011;49173;43.164;27.786;2023-07-16T14:50:30;5.32;;;1.80;;
63087;SDS011;49173;43.164;27.786;2023-07-16T14:52:55;3.00;;;1.85;;